createdAt,value
2023-01-17T00:01:29.483Z,98489.34
2023-01-17T00:04:15.618Z,98484.97
2023-01-17T00:07:01.794Z,98484.06
2023-01-17T00:09:48.134Z,98481.47
2023-01-17T00:12:15.823Z,98486.72
2023-01-17T00:14:43.727Z,98486.66
2023-01-17T00:17:11.302Z,98493.53
2023-01-17T00:19:57.515Z,98496.72
2023-01-17T00:22:46.085Z,98491.41
2023-01-17T00:25:39.934Z,98493.03
2023-01-17T00:28:07.865Z,98498.91
2023-01-17T00:30:35.986Z,98492.87
2023-01-17T00:33:03.633Z,98504.09
2023-01-17T00:35:32.409Z,98493.03
2023-01-17T00:38:17.390Z,98493.69
2023-01-17T00:40:46.011Z,98493.59
2023-01-17T00:43:33.818Z,98478.91
2023-01-17T00:46:20.338Z,98478.81
2023-01-17T00:49:06.605Z,98479.75
2023-01-17T00:51:53.950Z,98498.66
2023-01-17T00:54:40.663Z,98497.72
2023-01-17T00:57:27.348Z,98497.03
2023-01-17T01:00:13.938Z,98517.38
2023-01-17T01:03:00.597Z,98524.94
2023-01-17T01:05:46.963Z,98530.13
2023-01-17T01:08:41.027Z,98537.84
2023-01-17T01:11:29.450Z,98523.16
2023-01-17T01:14:15.905Z,98524.41
2023-01-17T01:17:01.948Z,98513.00
2023-01-17T01:19:48.668Z,98504.91
2023-01-17T01:22:34.983Z,98491.72
2023-01-17T01:25:21.986Z,98483.72
2023-01-17T01:28:08.113Z,98469.59
2023-01-17T01:30:54.451Z,98463.88
2023-01-17T01:33:21.949Z,98452.53
2023-01-17T01:35:54.513Z,98434.12
2023-01-17T01:38:24.257Z,98414.84
2023-01-17T01:40:54.507Z,98428.25
2023-01-17T01:43:45.273Z,98438.37
2023-01-17T01:46:35.799Z,98444.25
2023-01-17T01:49:14.880Z,98438.00
2023-01-17T01:51:46.048Z,98418.75
2023-01-17T01:54:50.189Z,98411.50
2023-01-17T01:57:21.104Z,98390.59
2023-01-17T02:00:11.684Z,98380.88
2023-01-17T02:02:39.379Z,98362.75
2023-01-17T02:05:09.233Z,98367.19
2023-01-17T02:07:43.423Z,98365.44
2023-01-17T02:10:12.846Z,98369.81
2023-01-17T02:12:40.527Z,98376.63
2023-01-17T02:15:08.704Z,98368.69
2023-01-17T02:17:58.003Z,98360.59
2023-01-17T02:20:55.244Z,98338.72
2023-01-17T02:23:38.475Z,98317.59
2023-01-17T02:26:34.530Z,98302.59
2023-01-17T02:29:20.396Z,98304.09
2023-01-17T02:31:51.986Z,98304.72
2023-01-17T02:34:35.553Z,98319.38
2023-01-17T02:37:28.749Z,98323.72
2023-01-17T02:40:00.638Z,98334.25
2023-01-17T02:42:36.357Z,98352.59
2023-01-17T02:45:04.847Z,98415.34
2023-01-17T02:47:32.640Z,98530.28
2023-01-17T02:50:07.858Z,98524.56
2023-01-17T02:53:06.571Z,98537.81
2023-01-17T02:55:39.068Z,98528.09
2023-01-17T02:58:28.666Z,98534.97
2023-01-17T03:00:59.208Z,98539.72
2023-01-17T03:03:52.577Z,98528.38
2023-01-17T03:06:40.211Z,98527.78
2023-01-17T03:09:09.008Z,98538.28
2023-01-17T03:11:36.911Z,98528.06
2023-01-17T03:14:04.501Z,98528.88
2023-01-17T03:16:33.493Z,98505.88
2023-01-17T03:19:01.391Z,98509.47
2023-01-17T03:21:28.991Z,98489.44
2023-01-17T03:23:56.830Z,98478.50
2023-01-17T03:26:24.418Z,98466.16
2023-01-17T03:28:52.028Z,98466.41
2023-01-17T03:31:20.083Z,98472.62
2023-01-17T03:33:47.633Z,98480.94
2023-01-17T03:36:15.292Z,98480.28
2023-01-17T03:38:43.243Z,98472.19
2023-01-17T03:41:10.820Z,98472.09
2023-01-17T03:43:38.825Z,98466.91
2023-01-17T03:46:08.458Z,98460.53
2023-01-17T03:48:36.243Z,98462.97
2023-01-17T03:51:04.045Z,98465.56
2023-01-17T03:53:31.829Z,98462.97
2023-01-17T03:56:00.345Z,98467.16
2023-01-17T03:58:27.855Z,98460.59
2023-01-17T04:00:55.829Z,98455.31
2023-01-17T04:03:23.865Z,98439.78
2023-01-17T04:05:51.868Z,98428.06
2023-01-17T04:08:19.486Z,98434.94
2023-01-17T04:10:47.471Z,98436.75
2023-01-17T04:13:16.827Z,98448.63
2023-01-17T04:15:46.134Z,98445.19
2023-01-17T04:18:14.379Z,98454.75
2023-01-17T04:20:42.092Z,98450.12
2023-01-17T04:23:09.592Z,98460.63
2023-01-17T04:25:37.523Z,98469.75
2023-01-17T04:28:06.021Z,98489.81
2023-01-17T04:30:34.026Z,98493.09
2023-01-17T04:33:02.007Z,98465.47
2023-01-17T04:35:31.023Z,98458.59
2023-01-17T04:37:58.534Z,98468.56
2023-01-17T04:40:26.608Z,98471.06
2023-01-17T04:42:54.437Z,98468.56
2023-01-17T04:45:22.211Z,98461.69
2023-01-17T04:47:50.238Z,98471.41
2023-01-17T04:50:18.362Z,98487.38
2023-01-17T04:52:45.914Z,98491.50
2023-01-17T04:55:13.901Z,98490.56
2023-01-17T04:57:41.475Z,98490.41
2023-01-17T05:00:09.561Z,98495.62
2023-01-17T05:02:37.443Z,98501.78
2023-01-17T05:05:05.398Z,98503.91
2023-01-17T05:07:35.640Z,98496.00
2023-01-17T05:10:04.572Z,98484.19
2023-01-17T05:12:32.070Z,98497.31
2023-01-17T05:14:59.540Z,98502.91
2023-01-17T05:17:27.430Z,98513.53
2023-01-17T05:19:55.056Z,98507.75
2023-01-17T05:22:22.588Z,98512.94
2023-01-17T05:24:50.415Z,98492.06
2023-01-17T05:27:17.995Z,98503.16
2023-01-17T05:29:45.850Z,98504.06
2023-01-17T05:32:13.690Z,98529.50
2023-01-17T05:34:41.158Z,98520.47
2023-01-17T05:37:08.852Z,98528.06
2023-01-17T05:39:36.768Z,98524.59
2023-01-17T05:42:04.484Z,98541.94
2023-01-17T05:44:32.144Z,98546.97
2023-01-17T05:47:00.005Z,98559.53
2023-01-17T05:49:27.623Z,98545.59
2023-01-17T05:51:55.533Z,98556.06
2023-01-17T05:54:23.375Z,98558.66
2023-01-17T05:56:50.946Z,98554.56
2023-01-17T05:59:28.584Z,98537.09
2023-01-17T06:02:04.054Z,98553.25
2023-01-17T06:04:31.967Z,98560.06
2023-01-17T06:06:59.622Z,98563.38
2023-01-17T06:09:27.225Z,98560.50
2023-01-17T06:11:55.090Z,98573.47
2023-01-17T06:14:22.640Z,98581.81
2023-01-17T06:16:50.222Z,98583.72
2023-01-17T06:19:18.156Z,98589.88
2023-01-17T06:21:45.812Z,98593.34
2023-01-17T06:24:13.514Z,98595.16
2023-01-17T06:26:43.752Z,98596.78
2023-01-17T06:29:12.403Z,98600.47
2023-01-17T06:31:40.305Z,98609.09
2023-01-17T06:34:08.287Z,98609.03
2023-01-17T06:36:35.817Z,98609.59
2023-01-17T06:39:03.775Z,98613.75
2023-01-17T06:41:32.184Z,98619.78
2023-01-17T06:43:59.780Z,98623.00
2023-01-17T06:46:27.564Z,98629.09
2023-01-17T06:48:56.031Z,98629.00
2023-01-17T06:51:23.509Z,98633.38
2023-01-17T06:53:51.221Z,98642.78
2023-01-17T06:56:19.404Z,98648.59
2023-01-17T06:58:50.752Z,98640.81
2023-01-17T07:01:19.097Z,98644.59
2023-01-17T07:03:47.276Z,98640.72
2023-01-17T07:06:14.884Z,98640.12
2023-01-17T07:08:42.480Z,98632.03
2023-01-17T07:11:10.773Z,98643.97
2023-01-17T07:13:38.657Z,98654.47
2023-01-17T07:16:07.667Z,98656.09
2023-01-17T07:18:35.588Z,98661.00
2023-01-17T07:21:03.059Z,98654.19
2023-01-17T07:23:30.666Z,98659.78
2023-01-17T07:25:59.812Z,98661.53
2023-01-17T07:28:28.133Z,98666.97
2023-01-17T07:30:55.603Z,98660.53
2023-01-17T07:33:23.620Z,98665.41
2023-01-17T07:35:54.520Z,98666.94
2023-01-17T07:38:22.084Z,98663.00
2023-01-17T07:40:49.983Z,98654.22
2023-01-17T07:43:17.739Z,98662.75
2023-01-17T07:45:52.060Z,98654.75
2023-01-17T07:48:21.966Z,98677.69
2023-01-17T07:50:57.116Z,98679.94
2023-01-17T07:53:27.716Z,98680.50
2023-01-17T07:55:55.627Z,98682.09
2023-01-17T07:58:23.234Z,98683.13
2023-01-17T08:00:51.274Z,98687.84
2023-01-17T08:03:20.339Z,98694.56
2023-01-17T08:05:55.726Z,98694.19
2023-01-17T08:08:28.230Z,98689.13
2023-01-17T08:10:55.930Z,98691.09
2023-01-17T08:13:23.983Z,98692.50
2023-01-17T08:15:51.838Z,98681.16
2023-01-17T08:18:19.541Z,98691.25
2023-01-17T08:20:47.565Z,98683.69
2023-01-17T08:23:15.617Z,98690.87
2023-01-17T08:25:43.162Z,98685.22
2023-01-17T08:28:11.190Z,98694.72
2023-01-17T08:30:39.231Z,98692.09
2023-01-17T08:33:10.210Z,98691.94
2023-01-17T08:35:38.406Z,98683.50
2023-01-17T08:38:06.175Z,98692.16
2023-01-17T08:40:33.827Z,98698.37
2023-01-17T08:43:01.708Z,98709.25
2023-01-17T08:45:29.513Z,98716.94
2023-01-17T08:47:58.659Z,98704.87
2023-01-17T08:50:27.105Z,98715.25
2023-01-17T08:53:00.958Z,98704.22
2023-01-17T08:55:29.301Z,98719.72
2023-01-17T08:57:57.437Z,98719.81
2023-01-17T09:00:25.203Z,98733.94
2023-01-17T09:02:53.942Z,98738.00
2023-01-17T09:05:21.538Z,98738.94
2023-01-17T09:07:49.154Z,98749.53
2023-01-17T09:10:17.205Z,98753.06
2023-01-17T09:12:44.775Z,98747.41
2023-01-17T09:15:15.670Z,98746.16
2023-01-17T09:17:43.772Z,98759.81
2023-01-17T09:20:12.023Z,98754.88
2023-01-17T09:22:39.933Z,98761.88
2023-01-17T09:25:08.498Z,98768.88
2023-01-17T09:27:36.198Z,98773.56
2023-01-17T09:30:04.682Z,98774.28
2023-01-17T09:32:32.981Z,98774.37
2023-01-17T09:35:00.849Z,98768.94
2023-01-17T09:37:28.656Z,98764.09
2023-01-17T09:39:57.737Z,98764.84
2023-01-17T09:42:42.517Z,98759.34
2023-01-17T09:45:16.660Z,98766.53
2023-01-17T09:47:46.626Z,98776.78
2023-01-17T09:50:23.455Z,98773.31
2023-01-17T09:53:00.601Z,98780.69
2023-01-17T09:55:44.043Z,98773.25
2023-01-17T09:58:21.627Z,98774.16
2023-01-17T10:01:01.400Z,98769.97
2023-01-17T10:03:56.017Z,98773.94
2023-01-17T10:07:14.609Z,98760.06
2023-01-17T10:09:51.317Z,98766.16
2023-01-17T10:12:29.799Z,98769.41
2023-01-17T10:15:10.448Z,98769.53
2023-01-17T10:17:47.134Z,98771.06
2023-01-17T10:20:42.092Z,98770.19
2023-01-17T10:23:43.217Z,98768.31
2023-01-17T10:26:17.563Z,98762.91
2023-01-17T10:28:51.388Z,98749.09
2023-01-17T10:31:24.707Z,98757.44
2023-01-17T10:33:56.354Z,98758.87
2023-01-17T10:36:28.170Z,98743.56
2023-01-17T10:38:59.543Z,98747.97
2023-01-17T10:41:34.068Z,98752.19
2023-01-17T10:44:12.104Z,98753.63
2023-01-17T10:47:12.267Z,98747.97
2023-01-17T10:49:43.446Z,98747.97
2023-01-17T10:52:39.035Z,98748.09
2023-01-17T10:55:12.992Z,98745.72
2023-01-17T10:57:47.936Z,98728.22
2023-01-17T11:00:41.921Z,98722.34
2023-01-17T11:03:15.058Z,98723.69
2023-01-17T11:05:43.966Z,98719.72
2023-01-17T11:08:14.429Z,98726.63
2023-01-17T11:10:43.186Z,98710.41
2023-01-17T11:13:32.653Z,98702.66
2023-01-17T11:16:10.117Z,98710.59
2023-01-17T11:18:39.693Z,98715.63
2023-01-17T11:21:12.307Z,98715.84
2023-01-17T11:23:44.297Z,98717.62
2023-01-17T11:27:02.503Z,98731.16
2023-01-17T11:29:39.017Z,98719.41
2023-01-17T11:32:31.145Z,98720.47
2023-01-17T11:35:16.934Z,98719.72
2023-01-17T11:37:58.554Z,98710.50
2023-01-17T11:40:36.399Z,98689.94
2023-01-17T11:43:15.500Z,98689.28
2023-01-17T11:45:43.075Z,98679.94
2023-01-17T11:48:17.251Z,98673.31
2023-01-17T11:50:56.330Z,98661.19
2023-01-17T11:53:30.793Z,98656.22
2023-01-17T11:56:10.490Z,98642.28
2023-01-17T11:58:43.536Z,98633.22
2023-01-17T12:01:46.843Z,98636.06
2023-01-17T12:04:36.653Z,98621.97
2023-01-17T12:07:07.603Z,98612.31
2023-01-17T12:10:02.334Z,98610.72
2023-01-17T12:13:01.812Z,98595.84
2023-01-17T12:15:39.593Z,98615.41
2023-01-17T12:18:36.635Z,98612.94
2023-01-17T12:21:04.609Z,98606.63
2023-01-17T12:23:48.110Z,98610.91
2023-01-17T12:26:42.643Z,98604.22
2023-01-17T12:29:39.127Z,98596.69
2023-01-17T12:32:28.627Z,98598.47
2023-01-17T12:35:12.035Z,98592.28
2023-01-17T12:37:42.414Z,98593.94
2023-01-17T12:40:13.170Z,98596.56
2023-01-17T12:42:44.636Z,98592.16
2023-01-17T12:45:17.586Z,98577.50
2023-01-17T12:47:49.267Z,98579.94
2023-01-17T12:50:32.977Z,98572.81
2023-01-17T12:53:23.066Z,98565.78
2023-01-17T12:55:59.372Z,98566.72
2023-01-17T12:58:45.343Z,98567.66
2023-01-17T13:01:29.954Z,98557.41
2023-01-17T13:04:16.695Z,98557.41
2023-01-17T13:06:59.953Z,98553.09
2023-01-17T13:09:39.811Z,98540.94
2023-01-17T13:12:16.886Z,98538.19
2023-01-17T13:14:48.562Z,98522.69
2023-01-17T13:17:24.984Z,98531.28
2023-01-17T13:20:47.209Z,98525.41
2023-01-17T13:24:03.427Z,98529.63
2023-01-17T13:26:55.674Z,98525.41
2023-01-17T13:29:52.366Z,98532.56
2023-01-17T13:32:49.405Z,98542.31
2023-01-17T13:35:27.225Z,98526.94
2023-01-17T13:38:09.700Z,98522.44
2023-01-17T13:40:37.588Z,98509.31
2023-01-17T13:43:11.476Z,98507.63
2023-01-17T13:45:39.560Z,98489.38
2023-01-17T13:48:25.835Z,98492.84
2023-01-17T13:50:58.594Z,98484.16
2023-01-17T13:53:31.476Z,98496.53
2023-01-17T13:56:22.447Z,98487.94
2023-01-17T13:58:50.651Z,98481.88
2023-01-17T14:01:24.586Z,98480.19
2023-01-17T14:03:52.784Z,98466.56
2023-01-17T14:06:35.592Z,98463.03
2023-01-17T14:09:21.343Z,98460.41
2023-01-17T14:12:01.652Z,98453.59
2023-01-17T14:14:41.688Z,98440.91
2023-01-17T14:17:28.269Z,98436.41
2023-01-17T14:20:01.827Z,98436.53
2023-01-17T14:22:33.330Z,98426.16
2023-01-17T14:25:17.550Z,98421.75
2023-01-17T14:28:01.313Z,98422.81
2023-01-17T14:30:31.997Z,98416.84
2023-01-17T14:33:02.271Z,98409.44
2023-01-17T14:35:36.725Z,98417.19
2023-01-17T14:38:16.415Z,98413.84
2023-01-17T14:40:50.876Z,98408.72
2023-01-17T14:43:24.590Z,98416.22
2023-01-17T14:46:08.162Z,98408.56
2023-01-17T14:48:39.706Z,98404.38
2023-01-17T14:51:19.108Z,98399.25
2023-01-17T14:54:00.341Z,98389.81
2023-01-17T14:56:29.749Z,98389.94
2023-01-17T14:59:14.606Z,98380.50
2023-01-17T15:02:06.278Z,98380.63
2023-01-17T15:04:39.617Z,98371.44
2023-01-17T15:07:14.481Z,98363.91
2023-01-17T15:09:43.204Z,98351.88
2023-01-17T15:12:13.847Z,98356.19
2023-01-17T15:14:43.968Z,98341.50
2023-01-17T15:17:24.851Z,98334.72
2023-01-17T15:20:03.824Z,98328.66
2023-01-17T15:22:32.426Z,98323.72
2023-01-17T15:25:00.306Z,98329.72
2023-01-17T15:27:28.249Z,98329.81
2023-01-17T15:30:01.489Z,98321.25
2023-01-17T15:32:32.600Z,98320.41
2023-01-17T15:35:02.919Z,98319.44
2023-01-17T15:37:32.824Z,98311.72
2023-01-17T15:40:07.082Z,98298.72
2023-01-17T15:42:36.680Z,98304.22
2023-01-17T15:45:06.387Z,98291.94
2023-01-17T15:47:38.943Z,98278.03
2023-01-17T15:50:28.581Z,98265.84
2023-01-17T15:53:05.288Z,98257.16
2023-01-17T15:55:38.269Z,98252.03
2023-01-17T15:58:25.454Z,98251.19
2023-01-17T16:00:53.943Z,98218.94
2023-01-17T16:03:23.611Z,98218.72
2023-01-17T16:05:53.092Z,98197.03
2023-01-17T16:08:38.613Z,98197.13
2023-01-17T16:11:08.078Z,98192.88
2023-01-17T16:13:38.749Z,98181.16
2023-01-17T16:16:17.753Z,98180.72
2023-01-17T16:18:46.863Z,98163.59
2023-01-17T16:21:26.534Z,98153.00
2023-01-17T16:23:54.750Z,98140.84
2023-01-17T16:26:22.817Z,98130.38
2023-01-17T16:28:50.544Z,98120.97
2023-01-17T16:31:18.502Z,98123.72
2023-01-17T16:33:48.898Z,98107.41
2023-01-17T16:36:17.110Z,98110.00
2023-01-17T16:38:45.781Z,98109.19
2023-01-17T16:41:13.531Z,98100.72
2023-01-17T16:43:41.152Z,98088.25
2023-01-17T16:46:11.217Z,98078.75
2023-01-17T16:48:38.762Z,98081.34
2023-01-17T16:51:07.760Z,98084.81
2023-01-17T16:53:36.592Z,98072.69
2023-01-17T16:56:12.017Z,98071.84
2023-01-17T16:58:40.296Z,98063.25
2023-01-17T17:01:15.478Z,98074.34
2023-01-17T17:03:44.102Z,98074.81
2023-01-17T17:06:12.550Z,98060.06
2023-01-17T17:08:40.300Z,98047.81
2023-01-17T17:11:15.384Z,98045.91
2023-01-17T17:13:44.710Z,98024.97
2023-01-17T17:16:24.192Z,98024.63
2023-01-17T17:18:57.247Z,98036.16
2023-01-17T17:21:25.818Z,98021.63
2023-01-17T17:23:58.285Z,98009.97
2023-01-17T17:26:35.084Z,97995.91
2023-01-17T17:29:03.561Z,98002.25
2023-01-17T17:31:31.894Z,98002.00
2023-01-17T17:34:01.124Z,97990.81
2023-01-17T17:36:28.998Z,97980.56
2023-01-17T17:38:57.729Z,97989.75
2023-01-17T17:41:27.282Z,97974.37
2023-01-17T17:43:55.369Z,97969.75
2023-01-17T17:46:24.575Z,97966.19
2023-01-17T17:48:52.372Z,97956.91
2023-01-17T17:51:34.709Z,97957.03
2023-01-17T17:54:05.190Z,97939.53
2023-01-17T17:56:34.106Z,97934.44
2023-01-17T17:59:03.297Z,97932.75
2023-01-17T18:01:31.377Z,97916.09
2023-01-17T18:04:03.600Z,97906.00
2023-01-17T18:06:31.562Z,97887.31
2023-01-17T18:08:59.378Z,97883.63
2023-01-17T18:11:28.004Z,97874.00
2023-01-17T18:13:57.137Z,97866.97
2023-01-17T18:16:28.609Z,97856.63
2023-01-17T18:18:57.658Z,97857.47
2023-01-17T18:21:31.620Z,97863.75
2023-01-17T18:24:01.785Z,97859.94
2023-01-17T18:26:32.433Z,97858.44
2023-01-17T18:29:01.511Z,97855.31
2023-01-17T18:31:30.511Z,97852.56
2023-01-17T18:34:00.338Z,97848.06
2023-01-17T18:36:28.906Z,97846.13
2023-01-17T18:38:57.270Z,97846.47
2023-01-17T18:41:27.210Z,97842.22
2023-01-17T18:43:57.877Z,97841.84
2023-01-17T18:46:26.587Z,97843.53
2023-01-17T18:48:57.401Z,97834.13
2023-01-17T18:51:26.361Z,97835.44
2023-01-17T18:53:56.055Z,97829.22
2023-01-17T18:56:24.031Z,97824.81
2023-01-17T18:58:51.519Z,97831.25
2023-01-17T19:01:22.735Z,97812.94
2023-01-17T19:03:52.594Z,97821.28
2023-01-17T19:06:24.192Z,97814.25
2023-01-17T19:08:52.139Z,97815.06
2023-01-17T19:11:22.111Z,97803.63
2023-01-17T19:13:50.391Z,97804.34
2023-01-17T19:16:31.682Z,97809.31
2023-01-17T19:19:05.239Z,97803.38
2023-01-17T19:21:33.533Z,97802.31
2023-01-17T19:24:01.755Z,97806.44
2023-01-17T19:26:30.103Z,97800.97
2023-01-17T19:29:00.037Z,97788.72
2023-01-17T19:31:30.357Z,97796.53
2023-01-17T19:33:59.533Z,97788.56
2023-01-17T19:36:29.437Z,97783.09
2023-01-17T19:39:06.196Z,97789.44
2023-01-17T19:41:35.553Z,97782.06
2023-01-17T19:44:06.045Z,97780.66
2023-01-17T19:46:33.868Z,97782.19
2023-01-17T19:49:02.195Z,97768.28
2023-01-17T19:51:30.117Z,97774.69
2023-01-17T19:54:01.370Z,97769.47
2023-01-17T19:56:29.653Z,97768.91
2023-01-17T19:59:01.166Z,97764.03
2023-01-17T20:01:31.881Z,97756.41
2023-01-17T20:04:01.538Z,97752.25
2023-01-17T20:06:32.246Z,97752.63
2023-01-17T20:09:00.397Z,97753.81
2023-01-17T20:11:28.589Z,97755.63
2023-01-17T20:13:57.654Z,97753.25
2023-01-17T20:16:27.850Z,97750.88
2023-01-17T20:18:55.811Z,97764.22
2023-01-17T20:21:26.705Z,97770.28
2023-01-17T20:23:56.790Z,97753.63
2023-01-17T20:26:31.170Z,97771.34
2023-01-17T20:28:59.217Z,97761.72
2023-01-17T20:31:28.615Z,97764.22
2023-01-17T20:33:56.748Z,97768.59
2023-01-17T20:36:27.065Z,97756.22
2023-01-17T20:38:57.089Z,97759.44
2023-01-17T20:41:29.822Z,97766.19
2023-01-17T20:43:59.238Z,97758.47
2023-01-17T20:46:31.408Z,97749.06
2023-01-17T20:49:01.219Z,97746.13
2023-01-17T20:51:29.784Z,97749.66
2023-01-17T20:54:00.821Z,97770.94
2023-01-17T20:56:30.213Z,97765.72
2023-01-17T20:58:58.147Z,97772.22
2023-01-17T21:01:26.092Z,97792.34
2023-01-17T21:03:54.077Z,97784.84
2023-01-17T21:06:23.336Z,97790.41
2023-01-17T21:08:51.463Z,97792.91
2023-01-17T21:11:21.888Z,97793.88
2023-01-17T21:13:51.334Z,97793.88
2023-01-17T21:16:21.223Z,97796.50
2023-01-17T21:18:51.101Z,97794.12
2023-01-17T21:21:22.171Z,97780.06
2023-01-17T21:23:51.556Z,97770.94
2023-01-17T21:26:20.639Z,97730.56
2023-01-17T21:28:49.476Z,97693.09
2023-01-17T21:31:23.440Z,97675.47
2023-01-17T21:33:51.393Z,97706.37
2023-01-17T21:36:20.051Z,97699.87
2023-01-17T21:38:52.513Z,97720.28
2023-01-17T21:41:21.954Z,97752.81
2023-01-17T21:43:53.920Z,97758.88
2023-01-17T21:46:22.303Z,97758.44
2023-01-17T21:48:49.933Z,97748.91
2023-01-17T21:51:19.596Z,97739.63
2023-01-17T21:53:47.656Z,97745.81
2023-01-17T21:56:33.757Z,97763.41
2023-01-17T21:59:01.589Z,97763.66
2023-01-17T22:01:32.347Z,97771.38
2023-01-17T22:04:02.860Z,97765.44
2023-01-17T22:06:34.340Z,97776.75
2023-01-17T22:09:02.189Z,97779.88
2023-01-17T22:11:32.735Z,97777.97
2023-01-17T22:14:00.324Z,97789.00
2023-01-17T22:16:28.335Z,97804.03
2023-01-17T22:18:56.095Z,97810.06
2023-01-17T22:21:28.442Z,97815.81
2023-01-17T22:23:58.303Z,97834.56
2023-01-17T22:26:28.608Z,97825.16
2023-01-17T22:28:59.255Z,97830.78
2023-01-17T22:31:28.415Z,97843.87
2023-01-17T22:34:03.812Z,97842.56
2023-01-17T22:36:34.868Z,97848.53
2023-01-17T22:39:02.695Z,97862.97
2023-01-17T22:41:32.136Z,97869.47
2023-01-17T22:44:02.201Z,97859.25
2023-01-17T22:46:32.482Z,97857.22
2023-01-17T22:49:00.377Z,97869.63
2023-01-17T22:51:28.533Z,97864.94
2023-01-17T22:53:58.412Z,97862.59
2023-01-17T22:56:27.903Z,97875.34
2023-01-17T22:58:55.752Z,97891.88
2023-01-17T23:01:31.325Z,97886.88
2023-01-17T23:04:01.361Z,97899.16
2023-01-17T23:06:35.913Z,97894.88
2023-01-17T23:09:06.518Z,97895.38
2023-01-17T23:11:46.303Z,97898.31
2023-01-17T23:14:51.746Z,97891.06
2023-01-17T23:17:39.120Z,97916.56
2023-01-17T23:20:08.682Z,97911.44
2023-01-17T23:22:37.063Z,97917.78
2023-01-17T23:25:11.045Z,97912.19
2023-01-17T23:28:02.883Z,97912.66
2023-01-17T23:30:34.784Z,97912.16
2023-01-17T23:33:07.711Z,97923.34
2023-01-17T23:35:42.075Z,97916.94
2023-01-17T23:38:29.244Z,97935.72
2023-01-17T23:41:24.396Z,97950.72
2023-01-17T23:43:57.249Z,97947.38
2023-01-17T23:46:26.623Z,97958.81
2023-01-17T23:48:55.303Z,97960.72
2023-01-17T23:51:22.870Z,97947.97
2023-01-17T23:53:53.488Z,97951.91
2023-01-17T23:56:23.196Z,97951.09
2023-01-17T23:58:50.780Z,97943.34
